sensor_id;sensor_type;location;lat;lon;timestamp;P1;durP1;ratioP1;P2;durP2;ratioP2
18013;SDS011;9132;47.946;10.394;2023-05-09T00:01:46;18.63;;;14.80;;
18013;SDS011;9132;47.946;10.394;2023-05-09T00:04:12;18.13;;;15.47;;
18013;SDS011;9132;47.946;10.394;2023-05-09T00:06:39;18.50;;;15.33;;
18013;SDS011;9132;47.946;10.394;2023-05-09T00:09:06;18.60;;;16.03;;
18013;SDS011;9132;47.946;10.394;2023-05-09T00:11:32;17.53;;;15.70;;
18013;SDS011;9132;47.946;10.394;2023-05-09T00:13:58;19.73;;;15.67;;
18013;SDS011;9132;47.946;10.394;2023-05-09T00:16:26;21.10;;;17.20;;
18013;SDS011;9132;47.946;10.394;2023-05-09T00:18:52;20.63;;;17.53;;
18013;SDS011;9132;47.946;10.394;2023-05-09T00:21:20;19.07;;;16.97;;
18013;SDS011;9132;47.946;10.394;2023-05-09T00:23:46;20.00;;;16.80;;
18013;SDS011;9132;47.946;10.394;2023-05-09T00:26:12;19.07;;;16.43;;
18013;SDS011;9132;47.946;10.394;2023-05-09T00:28:38;17.80;;;15.77;;
18013;SDS011;9132;47.946;10.394;2023-05-09T00:31:05;18.07;;;15.43;;
18013;SDS011;9132;47.946;10.394;2023-05-09T00:33:32;18.73;;;15.70;;
18013;SDS011;9132;47.946;10.394;2023-05-09T00:35:59;18.60;;;16.27;;
18013;SDS011;9132;47.946;10.394;2023-05-09T00:38:25;18.53;;;16.30;;
18013;SDS011;9132;47.946;10.394;2023-05-09T00:40:52;19.07;;;16.87;;
18013;SDS011;9132;47.946;10.394;2023-05-09T00:43:18;19.47;;;17.37;;
18013;SDS011;9132;47.946;10.394;2023-05-09T00:45:45;22.30;;;17.70;;
18013;SDS011;9132;47.946;10.394;2023-05-09T00:48:11;20.00;;;17.70;;
18013;SDS011;9132;47.946;10.394;2023-05-09T00:50:39;22.77;;;18.83;;
18013;SDS011;9132;47.946;10.394;2023-05-09T00:53:05;23.13;;;18.13;;
18013;SDS011;9132;47.946;10.394;2023-05-09T00:55:32;21.67;;;17.90;;
18013;SDS011;9132;47.946;10.394;2023-05-09T00:57:58;22.20;;;18.47;;
18013;SDS011;9132;47.946;10.394;2023-05-09T01:00:24;20.40;;;18.20;;
18013;SDS011;9132;47.946;10.394;2023-05-09T01:02:52;22.30;;;18.83;;
18013;SDS011;9132;47.946;10.394;2023-05-09T01:05:19;20.53;;;18.33;;
18013;SDS011;9132;47.946;10.394;2023-05-09T01:07:49;20.67;;;18.47;;
18013;SDS011;9132;47.946;10.394;2023-05-09T01:10:18;21.97;;;19.17;;
18013;SDS011;9132;47.946;10.394;2023-05-09T01:12:47;21.90;;;18.47;;
18013;SDS011;9132;47.946;10.394;2023-05-09T01:15:16;21.83;;;19.43;;
18013;SDS011;9132;47.946;10.394;2023-05-09T01:17:46;20.47;;;18.30;;
18013;SDS011;9132;47.946;10.394;2023-05-09T01:20:17;20.27;;;18.07;;
18013;SDS011;9132;47.946;10.394;2023-05-09T01:22:47;22.07;;;19.10;;
18013;SDS011;9132;47.946;10.394;2023-05-09T01:25:26;22.87;;;19.90;;
18013;SDS011;9132;47.946;10.394;2023-05-09T01:27:57;24.50;;;19.67;;
18013;SDS011;9132;47.946;10.394;2023-05-09T01:30:27;22.67;;;18.80;;
18013;SDS011;9132;47.946;10.394;2023-05-09T01:32:59;24.20;;;20.30;;
18013;SDS011;9132;47.946;10.394;2023-05-09T01:35:25;24.37;;;19.53;;
18013;SDS011;9132;47.946;10.394;2023-05-09T01:37:54;23.47;;;19.00;;
18013;SDS011;9132;47.946;10.394;2023-05-09T01:40:21;21.67;;;19.27;;
18013;SDS011;9132;47.946;10.394;2023-05-09T01:42:48;25.03;;;19.90;;
18013;SDS011;9132;47.946;10.394;2023-05-09T01:45:16;22.27;;;19.57;;
18013;SDS011;9132;47.946;10.394;2023-05-09T01:47:44;22.40;;;19.47;;
18013;SDS011;9132;47.946;10.394;2023-05-09T01:50:12;23.37;;;19.63;;
18013;SDS011;9132;47.946;10.394;2023-05-09T01:52:40;21.53;;;18.73;;
18013;SDS011;9132;47.946;10.394;2023-05-09T01:55:08;23.57;;;19.63;;
18013;SDS011;9132;47.946;10.394;2023-05-09T01:57:35;24.40;;;19.63;;
18013;SDS011;9132;47.946;10.394;2023-05-09T02:00:01;24.40;;;19.73;;
18013;SDS011;9132;47.946;10.394;2023-05-09T02:02:28;24.27;;;20.03;;
18013;SDS011;9132;47.946;10.394;2023-05-09T02:04:56;23.77;;;20.40;;
18013;SDS011;9132;47.946;10.394;2023-05-09T02:07:22;25.23;;;19.10;;
18013;SDS011;9132;47.946;10.394;2023-05-09T02:09:49;23.93;;;19.30;;
18013;SDS011;9132;47.946;10.394;2023-05-09T02:12:17;26.07;;;20.13;;
18013;SDS011;9132;47.946;10.394;2023-05-09T02:14:44;23.30;;;20.47;;
18013;SDS011;9132;47.946;10.394;2023-05-09T02:17:10;26.57;;;19.30;;
18013;SDS011;9132;47.946;10.394;2023-05-09T02:19:41;21.60;;;18.60;;
18013;SDS011;9132;47.946;10.394;2023-05-09T02:22:08;23.40;;;18.93;;
18013;SDS011;9132;47.946;10.394;2023-05-09T02:24:35;20.50;;;18.03;;
18013;SDS011;9132;47.946;10.394;2023-05-09T02:27:02;25.67;;;19.53;;
18013;SDS011;9132;47.946;10.394;2023-05-09T02:29:28;20.57;;;18.13;;
18013;SDS011;9132;47.946;10.394;2023-05-09T02:31:56;19.77;;;17.57;;
18013;SDS011;9132;47.946;10.394;2023-05-09T02:34:23;22.97;;;18.50;;
18013;SDS011;9132;47.946;10.394;2023-05-09T02:36:50;20.63;;;17.97;;
18013;SDS011;9132;47.946;10.394;2023-05-09T02:39:18;20.07;;;17.73;;
18013;SDS011;9132;47.946;10.394;2023-05-09T02:41:47;20.17;;;17.87;;
18013;SDS011;9132;47.946;10.394;2023-05-09T02:44:13;20.30;;;17.53;;
18013;SDS011;9132;47.946;10.394;2023-05-09T02:46:39;19.23;;;17.07;;
18013;SDS011;9132;47.946;10.394;2023-05-09T02:49:05;20.20;;;17.40;;
18013;SDS011;9132;47.946;10.394;2023-05-09T02:51:32;18.33;;;16.27;;
18013;SDS011;9132;47.946;10.394;2023-05-09T02:53:59;19.57;;;16.00;;
18013;SDS011;9132;47.946;10.394;2023-05-09T02:56:26;19.87;;;17.30;;
18013;SDS011;9132;47.946;10.394;2023-05-09T02:58:52;18.53;;;16.53;;
18013;SDS011;9132;47.946;10.394;2023-05-09T03:01:19;18.20;;;16.27;;
18013;SDS011;9132;47.946;10.394;2023-05-09T03:03:45;19.13;;;16.17;;
18013;SDS011;9132;47.946;10.394;2023-05-09T03:06:12;20.00;;;17.23;;
18013;SDS011;9132;47.946;10.394;2023-05-09T03:08:38;21.80;;;18.20;;
18013;SDS011;9132;47.946;10.394;2023-05-09T03:11:04;20.57;;;16.60;;
18013;SDS011;9132;47.946;10.394;2023-05-09T03:13:32;19.23;;;16.43;;
18013;SDS011;9132;47.946;10.394;2023-05-09T03:15:58;19.17;;;15.70;;
18013;SDS011;9132;47.946;10.394;2023-05-09T03:18:25;19.37;;;16.30;;
18013;SDS011;9132;47.946;10.394;2023-05-09T03:20:51;20.33;;;16.43;;
18013;SDS011;9132;47.946;10.394;2023-05-09T03:23:17;18.37;;;16.40;;
18013;SDS011;9132;47.946;10.394;2023-05-09T03:25:43;19.17;;;16.57;;
18013;SDS011;9132;47.946;10.394;2023-05-09T03:28:10;19.17;;;16.10;;
18013;SDS011;9132;47.946;10.394;2023-05-09T03:30:37;19.53;;;16.30;;
18013;SDS011;9132;47.946;10.394;2023-05-09T03:33:04;19.60;;;16.60;;
18013;SDS011;9132;47.946;10.394;2023-05-09T03:35:30;20.53;;;16.50;;
18013;SDS011;9132;47.946;10.394;2023-05-09T03:37:56;19.50;;;16.73;;
18013;SDS011;9132;47.946;10.394;2023-05-09T03:40:22;20.83;;;17.70;;
18013;SDS011;9132;47.946;10.394;2023-05-09T03:42:49;21.03;;;16.73;;
18013;SDS011;9132;47.946;10.394;2023-05-09T03:45:15;17.77;;;15.03;;
18013;SDS011;9132;47.946;10.394;2023-05-09T03:47:43;21.13;;;16.33;;
18013;SDS011;9132;47.946;10.394;2023-05-09T03:50:10;18.47;;;16.40;;
18013;SDS011;9132;47.946;10.394;2023-05-09T03:52:36;20.73;;;15.97;;
18013;SDS011;9132;47.946;10.394;2023-05-09T03:55:02;16.00;;;14.40;;
18013;SDS011;9132;47.946;10.394;2023-05-09T03:57:29;20.17;;;15.70;;
18013;SDS011;9132;47.946;10.394;2023-05-09T03:59:56;17.77;;;15.37;;
18013;SDS011;9132;47.946;10.394;2023-05-09T04:02:22;19.47;;;15.73;;
18013;SDS011;9132;47.946;10.394;2023-05-09T04:04:49;18.03;;;15.00;;
18013;SDS011;9132;47.946;10.394;2023-05-09T04:07:16;18.93;;;15.70;;
18013;SDS011;9132;47.946;10.394;2023-05-09T04:09:43;18.03;;;16.00;;
18013;SDS011;9132;47.946;10.394;2023-05-09T04:12:09;17.20;;;15.33;;
18013;SDS011;9132;47.946;10.394;2023-05-09T04:14:35;17.80;;;15.90;;
18013;SDS011;9132;47.946;10.394;2023-05-09T04:17:02;20.03;;;16.13;;
18013;SDS011;9132;47.946;10.394;2023-05-09T04:19:28;18.13;;;15.87;;
18013;SDS011;9132;47.946;10.394;2023-05-09T04:21:56;19.43;;;15.77;;
18013;SDS011;9132;47.946;10.394;2023-05-09T04:24:22;21.83;;;16.33;;
18013;SDS011;9132;47.946;10.394;2023-05-09T04:26:48;18.03;;;15.10;;
18013;SDS011;9132;47.946;10.394;2023-05-09T04:29:15;17.13;;;15.33;;
18013;SDS011;9132;47.946;10.394;2023-05-09T04:31:41;17.50;;;15.70;;
18013;SDS011;9132;47.946;10.394;2023-05-09T04:34:07;16.93;;;15.13;;
18013;SDS011;9132;47.946;10.394;2023-05-09T04:36:33;16.93;;;15.00;;
18013;SDS011;9132;47.946;10.394;2023-05-09T04:39:01;16.53;;;14.83;;
18013;SDS011;9132;47.946;10.394;2023-05-09T04:41:29;16.77;;;14.97;;
18013;SDS011;9132;47.946;10.394;2023-05-09T04:43:55;17.83;;;15.03;;
18013;SDS011;9132;47.946;10.394;2023-05-09T04:46:21;16.67;;;14.23;;
18013;SDS011;9132;47.946;10.394;2023-05-09T04:48:47;16.03;;;14.30;;
18013;SDS011;9132;47.946;10.394;2023-05-09T04:51:14;16.90;;;14.50;;
18013;SDS011;9132;47.946;10.394;2023-05-09T04:53:40;16.33;;;14.63;;
18013;SDS011;9132;47.946;10.394;2023-05-09T04:56:08;18.17;;;15.37;;
18013;SDS011;9132;47.946;10.394;2023-05-09T04:58:34;18.60;;;14.90;;
18013;SDS011;9132;47.946;10.394;2023-05-09T05:01:02;18.47;;;14.97;;
18013;SDS011;9132;47.946;10.394;2023-05-09T05:03:28;17.07;;;15.20;;
18013;SDS011;9132;47.946;10.394;2023-05-09T05:05:55;18.63;;;14.13;;
18013;SDS011;9132;47.946;10.394;2023-05-09T05:08:21;15.90;;;13.90;;
18013;SDS011;9132;47.946;10.394;2023-05-09T05:10:47;16.20;;;13.97;;
18013;SDS011;9132;47.946;10.394;2023-05-09T05:13:15;15.83;;;14.13;;
18013;SDS011;9132;47.946;10.394;2023-05-09T05:15:41;16.17;;;14.43;;
18013;SDS011;9132;47.946;10.394;2023-05-09T05:18:08;16.03;;;14.00;;
18013;SDS011;9132;47.946;10.394;2023-05-09T05:20:34;17.27;;;14.40;;
18013;SDS011;9132;47.946;10.394;2023-05-09T05:23:00;17.07;;;14.00;;
18013;SDS011;9132;47.946;10.394;2023-05-09T05:25:27;16.03;;;14.37;;
18013;SDS011;9132;47.946;10.394;2023-05-09T05:27:53;17.03;;;14.87;;
18013;SDS011;9132;47.946;10.394;2023-05-09T05:30:21;14.97;;;13.30;;
18013;SDS011;9132;47.946;10.394;2023-05-09T05:32:47;16.37;;;14.33;;
18013;SDS011;9132;47.946;10.394;2023-05-09T05:35:13;17.23;;;15.33;;
18013;SDS011;9132;47.946;10.394;2023-05-09T05:37:40;17.00;;;15.30;;
18013;SDS011;9132;47.946;10.394;2023-05-09T05:40:07;17.03;;;15.23;;
18013;SDS011;9132;47.946;10.394;2023-05-09T05:42:33;21.03;;;14.87;;
18013;SDS011;9132;47.946;10.394;2023-05-09T05:45:00;18.23;;;15.70;;
18013;SDS011;9132;47.946;10.394;2023-05-09T05:47:30;17.87;;;15.03;;
18013;SDS011;9132;47.946;10.394;2023-05-09T05:49:57;16.93;;;15.23;;
18013;SDS011;9132;47.946;10.394;2023-05-09T05:52:23;17.17;;;15.47;;
18013;SDS011;9132;47.946;10.394;2023-05-09T05:54:50;17.47;;;15.60;;
18013;SDS011;9132;47.946;10.394;2023-05-09T05:57:16;18.60;;;16.63;;
18013;SDS011;9132;47.946;10.394;2023-05-09T05:59:42;17.87;;;16.07;;
18013;SDS011;9132;47.946;10.394;2023-05-09T06:02:09;16.27;;;14.40;;
18013;SDS011;9132;47.946;10.394;2023-05-09T06:04:36;14.40;;;12.87;;
18013;SDS011;9132;47.946;10.394;2023-05-09T06:07:03;15.13;;;13.23;;
18013;SDS011;9132;47.946;10.394;2023-05-09T06:09:29;14.40;;;12.73;;
18013;SDS011;9132;47.946;10.394;2023-05-09T06:11:55;14.93;;;13.33;;
18013;SDS011;9132;47.946;10.394;2023-05-09T06:14:21;16.33;;;13.53;;
18013;SDS011;9132;47.946;10.394;2023-05-09T06:16:48;14.23;;;12.77;;
18013;SDS011;9132;47.946;10.394;2023-05-09T06:19:14;13.33;;;11.97;;
18013;SDS011;9132;47.946;10.394;2023-05-09T06:21:42;13.93;;;12.50;;
18013;SDS011;9132;47.946;10.394;2023-05-09T06:24:08;14.10;;;12.67;;
18013;SDS011;9132;47.946;10.394;2023-05-09T06:26:34;12.53;;;11.33;;
18013;SDS011;9132;47.946;10.394;2023-05-09T06:29:01;13.63;;;12.33;;
18013;SDS011;9132;47.946;10.394;2023-05-09T06:31:27;14.60;;;13.10;;
18013;SDS011;9132;47.946;10.394;2023-05-09T06:33:53;14.37;;;12.97;;
18013;SDS011;9132;47.946;10.394;2023-05-09T06:36:19;14.63;;;12.50;;
18013;SDS011;9132;47.946;10.394;2023-05-09T06:38:47;13.13;;;11.80;;
18013;SDS011;9132;47.946;10.394;2023-05-09T06:41:13;14.03;;;12.63;;
18013;SDS011;9132;47.946;10.394;2023-05-09T06:43:40;13.07;;;11.77;;
18013;SDS011;9132;47.946;10.394;2023-05-09T06:46:06;13.00;;;11.48;;
18013;SDS011;9132;47.946;10.394;2023-05-09T06:48:32;12.88;;;11.57;;
18013;SDS011;9132;47.946;10.394;2023-05-09T06:50:58;12.38;;;11.18;;
18013;SDS011;9132;47.946;10.394;2023-05-09T06:53:25;13.97;;;12.47;;
18013;SDS011;9132;47.946;10.394;2023-05-09T06:55:52;14.57;;;13.17;;
18013;SDS011;9132;47.946;10.394;2023-05-09T06:58:19;14.17;;;12.77;;
18013;SDS011;9132;47.946;10.394;2023-05-09T07:00:45;13.37;;;11.97;;
18013;SDS011;9132;47.946;10.394;2023-05-09T07:03:11;13.50;;;12.10;;
18013;SDS011;9132;47.946;10.394;2023-05-09T07:05:38;13.77;;;12.43;;
18013;SDS011;9132;47.946;10.394;2023-05-09T07:08:04;14.10;;;12.60;;
18013;SDS011;9132;47.946;10.394;2023-05-09T07:10:30;13.80;;;12.50;;
18013;SDS011;9132;47.946;10.394;2023-05-09T07:12:58;16.58;;;13.90;;
18013;SDS011;9132;47.946;10.394;2023-05-09T07:15:24;16.02;;;14.52;;
18013;SDS011;9132;47.946;10.394;2023-05-09T07:17:51;16.63;;;14.90;;
18013;SDS011;9132;47.946;10.394;2023-05-09T07:20:17;15.70;;;13.82;;
18013;SDS011;9132;47.946;10.394;2023-05-09T07:22:43;16.05;;;14.07;;
18013;SDS011;9132;47.946;10.394;2023-05-09T07:25:09;15.63;;;14.03;;
18013;SDS011;9132;47.946;10.394;2023-05-09T07:27:36;15.87;;;13.87;;
18013;SDS011;9132;47.946;10.394;2023-05-09T07:30:04;15.15;;;13.50;;
18013;SDS011;9132;47.946;10.394;2023-05-09T07:32:30;15.00;;;13.50;;
18013;SDS011;9132;47.946;10.394;2023-05-09T07:34:57;15.48;;;14.00;;
18013;SDS011;9132;47.946;10.394;2023-05-09T07:37:23;18.17;;;14.83;;
18013;SDS011;9132;47.946;10.394;2023-05-09T07:39:49;15.57;;;13.98;;
18013;SDS011;9132;47.946;10.394;2023-05-09T07:42:16;17.13;;;15.40;;
18013;SDS011;9132;47.946;10.394;2023-05-09T07:44:42;17.35;;;15.38;;
18013;SDS011;9132;47.946;10.394;2023-05-09T07:47:10;17.03;;;15.23;;
18013;SDS011;9132;47.946;10.394;2023-05-09T07:49:37;16.93;;;14.07;;
18013;SDS011;9132;47.946;10.394;2023-05-09T07:52:04;15.38;;;13.60;;
18013;SDS011;9132;47.946;10.394;2023-05-09T07:54:30;16.50;;;14.75;;
18013;SDS011;9132;47.946;10.394;2023-05-09T07:56:56;17.08;;;15.00;;
18013;SDS011;9132;47.946;10.394;2023-05-09T07:59:23;15.07;;;13.50;;
18013;SDS011;9132;47.946;10.394;2023-05-09T08:01:49;15.27;;;13.75;;
18013;SDS011;9132;47.946;10.394;2023-05-09T08:04:16;13.32;;;12.02;;
18013;SDS011;9132;47.946;10.394;2023-05-09T08:06:43;14.35;;;12.85;;
18013;SDS011;9132;47.946;10.394;2023-05-09T08:09:09;14.57;;;13.18;;
18013;SDS011;9132;47.946;10.394;2023-05-09T08:11:35;13.68;;;12.27;;
18013;SDS011;9132;47.946;10.394;2023-05-09T08:14:02;13.77;;;12.38;;
18013;SDS011;9132;47.946;10.394;2023-05-09T08:16:28;13.63;;;12.32;;
18013;SDS011;9132;47.946;10.394;2023-05-09T08:18:54;12.18;;;10.98;;
18013;SDS011;9132;47.946;10.394;2023-05-09T08:21:22;13.07;;;11.77;;
18013;SDS011;9132;47.946;10.394;2023-05-09T08:23:48;14.23;;;11.95;;
18013;SDS011;9132;47.946;10.394;2023-05-09T08:26:14;11.10;;;10.10;;
18013;SDS011;9132;47.946;10.394;2023-05-09T08:28:40;10.82;;;9.82;;
18013;SDS011;9132;47.946;10.394;2023-05-09T08:31:07;12.48;;;11.18;;
18013;SDS011;9132;47.946;10.394;2023-05-09T08:33:33;13.00;;;11.70;;
18013;SDS011;9132;47.946;10.394;2023-05-09T08:35:59;11.40;;;10.10;;
18013;SDS011;9132;47.946;10.394;2023-05-09T08:38:27;10.50;;;9.50;;
18013;SDS011;9132;47.946;10.394;2023-05-09T08:40:58;10.68;;;9.63;;
18013;SDS011;9132;47.946;10.394;2023-05-09T08:43:25;11.18;;;10.07;;
18013;SDS011;9132;47.946;10.394;2023-05-09T08:45:53;11.02;;;9.93;;
18013;SDS011;9132;47.946;10.394;2023-05-09T08:48:21;9.75;;;8.73;;
18013;SDS011;9132;47.946;10.394;2023-05-09T08:50:48;10.80;;;9.70;;
18013;SDS011;9132;47.946;10.394;2023-05-09T08:53:14;11.43;;;9.15;;
18013;SDS011;9132;47.946;10.394;2023-05-09T08:55:42;10.75;;;9.75;;
18013;SDS011;9132;47.946;10.394;2023-05-09T08:58:08;10.75;;;9.38;;
18013;SDS011;9132;47.946;10.394;2023-05-09T09:00:35;10.00;;;9.00;;
18013;SDS011;9132;47.946;10.394;2023-05-09T09:03:02;10.90;;;8.88;;
18013;SDS011;9132;47.946;10.394;2023-05-09T09:05:29;10.38;;;9.18;;
18013;SDS011;9132;47.946;10.394;2023-05-09T09:07:55;9.40;;;8.50;;
18013;SDS011;9132;47.946;10.394;2023-05-09T09:10:22;9.48;;;8.48;;
18013;SDS011;9132;47.946;10.394;2023-05-09T09:12:52;9.05;;;7.78;;
18013;SDS011;9132;47.946;10.394;2023-05-09T09:15:21;11.23;;;9.10;;
18013;SDS011;9132;47.946;10.394;2023-05-09T09:17:49;9.75;;;8.75;;
18013;SDS011;9132;47.946;10.394;2023-05-09T09:20:15;11.10;;;10.10;;
18013;SDS011;9132;47.946;10.394;2023-05-09T09:22:43;11.50;;;10.30;;
18013;SDS011;9132;47.946;10.394;2023-05-09T09:25:11;11.27;;;10.18;;
18013;SDS011;9132;47.946;10.394;2023-05-09T09:27:37;12.23;;;10.85;;
18013;SDS011;9132;47.946;10.394;2023-05-09T09:30:06;13.55;;;11.68;;
18013;SDS011;9132;47.946;10.394;2023-05-09T09:32:33;13.40;;;12.13;;
18013;SDS011;9132;47.946;10.394;2023-05-09T09:35:02;13.90;;;12.50;;
18013;SDS011;9132;47.946;10.394;2023-05-09T09:37:30;12.60;;;11.30;;
18013;SDS011;9132;47.946;10.394;2023-05-09T09:39:58;12.15;;;10.95;;
18013;SDS011;9132;47.946;10.394;2023-05-09T09:42:24;11.88;;;10.70;;
18013;SDS011;9132;47.946;10.394;2023-05-09T09:44:52;13.05;;;11.70;;
18013;SDS011;9132;47.946;10.394;2023-05-09T09:47:25;12.80;;;11.50;;
18013;SDS011;9132;47.946;10.394;2023-05-09T09:49:55;15.40;;;11.57;;
18013;SDS011;9132;47.946;10.394;2023-05-09T09:52:21;12.23;;;11.10;;
18013;SDS011;9132;47.946;10.394;2023-05-09T09:54:49;11.68;;;10.57;;
18013;SDS011;9132;47.946;10.394;2023-05-09T09:57:24;11.48;;;10.38;;
18013;SDS011;9132;47.946;10.394;2023-05-09T09:59:58;12.25;;;11.05;;
18013;SDS011;9132;47.946;10.394;2023-05-09T10:02:25;13.48;;;11.77;;
18013;SDS011;9132;47.946;10.394;2023-05-09T10:04:51;12.32;;;11.10;;
18013;SDS011;9132;47.946;10.394;2023-05-09T10:07:18;16.00;;;12.98;;
18013;SDS011;9132;47.946;10.394;2023-05-09T10:09:47;13.15;;;11.75;;
18013;SDS011;9132;47.946;10.394;2023-05-09T10:12:13;13.27;;;11.80;;
18013;SDS011;9132;47.946;10.394;2023-05-09T10:14:43;11.38;;;10.25;;
18013;SDS011;9132;47.946;10.394;2023-05-09T10:17:12;11.30;;;9.82;;
18013;SDS011;9132;47.946;10.394;2023-05-09T10:19:40;12.57;;;11.27;;
18013;SDS011;9132;47.946;10.394;2023-05-09T10:22:09;10.30;;;9.25;;
18013;SDS011;9132;47.946;10.394;2023-05-09T10:24:38;11.43;;;10.25;;
18013;SDS011;9132;47.946;10.394;2023-05-09T10:27:05;13.18;;;9.45;;
18013;SDS011;9132;47.946;10.394;2023-05-09T10:29:35;11.48;;;10.23;;
18013;SDS011;9132;47.946;10.394;2023-05-09T10:32:04;9.65;;;8.75;;
18013;SDS011;9132;47.946;10.394;2023-05-09T10:34:35;9.77;;;8.77;;
18013;SDS011;9132;47.946;10.394;2023-05-09T10:37:04;11.13;;;9.93;;
18013;SDS011;9132;47.946;10.394;2023-05-09T10:39:31;10.32;;;9.20;;
18013;SDS011;9132;47.946;10.394;2023-05-09T10:41:57;9.07;;;8.18;;
18013;SDS011;9132;47.946;10.394;2023-05-09T10:44:25;9.75;;;8.23;;
18013;SDS011;9132;47.946;10.394;2023-05-09T10:46:52;9.70;;;8.10;;
18013;SDS011;9132;47.946;10.394;2023-05-09T10:49:19;9.93;;;8.80;;
18013;SDS011;9132;47.946;10.394;2023-05-09T10:51:45;8.57;;;7.78;;
18013;SDS011;9132;47.946;10.394;2023-05-09T10:54:13;7.60;;;7.00;;
18013;SDS011;9132;47.946;10.394;2023-05-09T10:56:40;7.40;;;6.32;;
18013;SDS011;9132;47.946;10.394;2023-05-09T10:59:11;5.80;;;5.30;;
18013;SDS011;9132;47.946;10.394;2023-05-09T11:01:56;8.30;;;5.35;;
18013;SDS011;9132;47.946;10.394;2023-05-09T11:04:24;5.15;;;4.35;;
18013;SDS011;9132;47.946;10.394;2023-05-09T11:06:51;2.47;;;2.30;;
18013;SDS011;9132;47.946;10.394;2023-05-09T11:09:26;3.38;;;3.10;;
18013;SDS011;9132;47.946;10.394;2023-05-09T11:11:53;3.45;;;3.15;;
18013;SDS011;9132;47.946;10.394;2023-05-09T11:14:31;5.03;;;4.03;;
18013;SDS011;9132;47.946;10.394;2023-05-09T11:17:00;4.00;;;3.50;;
18013;SDS011;9132;47.946;10.394;2023-05-09T11:19:33;5.07;;;4.57;;
18013;SDS011;9132;47.946;10.394;2023-05-09T11:22:00;4.43;;;4.07;;
18013;SDS011;9132;47.946;10.394;2023-05-09T11:24:28;4.20;;;3.80;;
18013;SDS011;9132;47.946;10.394;2023-05-09T11:26:56;4.20;;;3.40;;
18013;SDS011;9132;47.946;10.394;2023-05-09T11:29:25;4.30;;;3.22;;
18013;SDS011;9132;47.946;10.394;2023-05-09T11:34:33;3.53;;;3.22;;
18013;SDS011;9132;47.946;10.394;2023-05-09T11:37:05;3.40;;;3.10;;
18013;SDS011;9132;47.946;10.394;2023-05-09T11:39:33;4.55;;;3.63;;
18013;SDS011;9132;47.946;10.394;2023-05-09T11:42:01;3.65;;;3.00;;
18013;SDS011;9132;47.946;10.394;2023-05-09T11:44:29;3.90;;;3.60;;
18013;SDS011;9132;47.946;10.394;2023-05-09T11:46:57;4.68;;;3.97;;
18013;SDS011;9132;47.946;10.394;2023-05-09T11:49:23;4.35;;;3.92;;
18013;SDS011;9132;47.946;10.394;2023-05-09T11:51:49;3.55;;;3.35;;
18013;SDS011;9132;47.946;10.394;2023-05-09T11:54:16;4.75;;;3.85;;
18013;SDS011;9132;47.946;10.394;2023-05-09T11:56:43;4.50;;;4.10;;
18013;SDS011;9132;47.946;10.394;2023-05-09T11:59:10;3.97;;;3.58;;
18013;SDS011;9132;47.946;10.394;2023-05-09T12:01:38;4.35;;;3.95;;
18013;SDS011;9132;47.946;10.394;2023-05-09T12:04:05;3.85;;;3.55;;
18013;SDS011;9132;47.946;10.394;2023-05-09T12:06:31;4.43;;;3.65;;
18013;SDS011;9132;47.946;10.394;2023-05-09T12:08:58;4.50;;;4.10;;
18013;SDS011;9132;47.946;10.394;2023-05-09T12:11:24;4.15;;;3.75;;
18013;SDS011;9132;47.946;10.394;2023-05-09T12:13:54;4.28;;;3.97;;
18013;SDS011;9132;47.946;10.394;2023-05-09T12:16:21;4.75;;;4.35;;
18013;SDS011;9132;47.946;10.394;2023-05-09T12:18:47;5.30;;;4.57;;
18013;SDS011;9132;47.946;10.394;2023-05-09T12:21:14;5.78;;;5.18;;
18013;SDS011;9132;47.946;10.394;2023-05-09T12:23:40;4.57;;;4.18;;
18013;SDS011;9132;47.946;10.394;2023-05-09T12:26:07;4.68;;;4.28;;
18013;SDS011;9132;47.946;10.394;2023-05-09T12:28:33;5.43;;;4.65;;
18013;SDS011;9132;47.946;10.394;2023-05-09T12:31:01;5.38;;;4.78;;
18013;SDS011;9132;47.946;10.394;2023-05-09T12:33:28;4.70;;;4.30;;
18013;SDS011;9132;47.946;10.394;2023-05-09T12:36:02;5.00;;;4.60;;
18013;SDS011;9132;47.946;10.394;2023-05-09T12:38:28;4.95;;;4.45;;
18013;SDS011;9132;47.946;10.394;2023-05-09T12:40:58;5.97;;;5.40;;
18013;SDS011;9132;47.946;10.394;2023-05-09T12:43:25;6.20;;;5.60;;
18013;SDS011;9132;47.946;10.394;2023-05-09T12:45:51;5.78;;;4.93;;
18013;SDS011;9132;47.946;10.394;2023-05-09T12:48:21;5.60;;;4.80;;
18013;SDS011;9132;47.946;10.394;2023-05-09T12:50:47;4.53;;;4.13;;
18013;SDS011;9132;47.946;10.394;2023-05-09T12:53:21;5.35;;;4.43;;
18013;SDS011;9132;47.946;10.394;2023-05-09T12:55:48;4.75;;;4.20;;
18013;SDS011;9132;47.946;10.394;2023-05-09T12:58:15;5.55;;;5.13;;
18013;SDS011;9132;47.946;10.394;2023-05-09T13:00:42;4.75;;;4.30;;
18013;SDS011;9132;47.946;10.394;2023-05-09T13:03:20;4.70;;;4.30;;
18013;SDS011;9132;47.946;10.394;2023-05-09T13:05:52;5.35;;;4.85;;
18013;SDS011;9132;47.946;10.394;2023-05-09T13:08:19;4.60;;;4.20;;
18013;SDS011;9132;47.946;10.394;2023-05-09T13:10:46;4.38;;;3.97;;
18013;SDS011;9132;47.946;10.394;2023-05-09T13:13:14;4.20;;;3.83;;
18013;SDS011;9132;47.946;10.394;2023-05-09T13:15:40;3.67;;;3.38;;
18013;SDS011;9132;47.946;10.394;2023-05-09T13:18:06;3.70;;;3.40;;
18013;SDS011;9132;47.946;10.394;2023-05-09T13:20:34;5.03;;;3.67;;
18013;SDS011;9132;47.946;10.394;2023-05-09T13:23:00;3.50;;;3.15;;
18013;SDS011;9132;47.946;10.394;2023-05-09T13:25:27;4.00;;;3.60;;
18013;SDS011;9132;47.946;10.394;2023-05-09T13:27:53;4.18;;;3.78;;
18013;SDS011;9132;47.946;10.394;2023-05-09T13:30:19;4.45;;;4.05;;
18013;SDS011;9132;47.946;10.394;2023-05-09T13:32:46;3.88;;;3.47;;
18013;SDS011;9132;47.946;10.394;2023-05-09T13:35:12;4.50;;;4.10;;
18013;SDS011;9132;47.946;10.394;2023-05-09T13:37:39;5.07;;;4.68;;
18013;SDS011;9132;47.946;10.394;2023-05-09T13:40:06;5.43;;;4.90;;
18013;SDS011;9132;47.946;10.394;2023-05-09T13:42:33;5.93;;;5.20;;
18013;SDS011;9132;47.946;10.394;2023-05-09T13:44:59;4.43;;;4.03;;
18013;SDS011;9132;47.946;10.394;2023-05-09T13:47:25;5.45;;;4.90;;
18013;SDS011;9132;47.946;10.394;2023-05-09T13:49:52;5.28;;;4.78;;
18013;SDS011;9132;47.946;10.394;2023-05-09T13:52:18;5.30;;;4.60;;
18013;SDS011;9132;47.946;10.394;2023-05-09T13:54:46;5.82;;;5.32;;
18013;SDS011;9132;47.946;10.394;2023-05-09T13:57:20;6.85;;;4.97;;
18013;SDS011;9132;47.946;10.394;2023-05-09T13:59:46;5.10;;;4.70;;
18013;SDS011;9132;47.946;10.394;2023-05-09T14:02:13;4.00;;;3.70;;
18013;SDS011;9132;47.946;10.394;2023-05-09T14:04:40;4.47;;;4.07;;
18013;SDS011;9132;47.946;10.394;2023-05-09T14:07:06;3.78;;;3.47;;
18013;SDS011;9132;47.946;10.394;2023-05-09T14:09:35;4.13;;;3.72;;
18013;SDS011;9132;47.946;10.394;2023-05-09T14:12:04;5.60;;;3.72;;
18013;SDS011;9132;47.946;10.394;2023-05-09T14:14:31;3.95;;;3.65;;
18013;SDS011;9132;47.946;10.394;2023-05-09T14:16:58;3.88;;;3.58;;
18013;SDS011;9132;47.946;10.394;2023-05-09T14:19:25;4.35;;;3.95;;
18013;SDS011;9132;47.946;10.394;2023-05-09T14:21:52;3.35;;;3.15;;
18013;SDS011;9132;47.946;10.394;2023-05-09T14:24:18;6.78;;;3.75;;
18013;SDS011;9132;47.946;10.394;2023-05-09T14:26:44;3.90;;;3.38;;
18013;SDS011;9132;47.946;10.394;2023-05-09T14:29:10;5.13;;;3.70;;
18013;SDS011;9132;47.946;10.394;2023-05-09T14:31:38;3.35;;;3.05;;